sensor_id;sensor_type;location;lat;lon;timestamp;P1;durP1;ratioP1;P2;durP2;ratioP2
8857;SDS011;4465;50.904;4.696;2023-10-19T00:00:33;9.80;;;1.15;;
8857;SDS011;4465;50.904;4.696;2023-10-19T00:03:01;2.10;;;0.90;;
8857;SDS011;4465;50.904;4.696;2023-10-19T00:05:31;6.13;;;1.07;;
8857;SDS011;4465;50.904;4.696;2023-10-19T00:07:58;7.18;;;1.20;;
8857;SDS011;4465;50.904;4.696;2023-10-19T00:10:47;1.40;;;0.57;;
8857;SDS011;4465;50.904;4.696;2023-10-19T00:13:30;1.85;;;0.80;;
8857;SDS011;4465;50.904;4.696;2023-10-19T00:15:56;3.58;;;0.80;;
8857;SDS011;4465;50.904;4.696;2023-10-19T00:18:25;3.42;;;0.93;;
8857;SDS011;4465;50.904;4.696;2023-10-19T00:20:59;2.67;;;1.17;;
8857;SDS011;4465;50.904;4.696;2023-10-19T00:23:36;5.70;;;1.00;;
8857;SDS011;4465;50.904;4.696;2023-10-19T00:26:05;1.88;;;1.00;;
8857;SDS011;4465;50.904;4.696;2023-10-19T00:28:35;3.00;;;1.23;;
8857;SDS011;4465;50.904;4.696;2023-10-19T00:31:04;6.28;;;0.77;;
8857;SDS011;4465;50.904;4.696;2023-10-19T00:33:36;3.88;;;1.20;;
8857;SDS011;4465;50.904;4.696;2023-10-19T00:36:09;4.97;;;1.00;;
8857;SDS011;4465;50.904;4.696;2023-10-19T00:38:41;4.18;;;0.80;;
8857;SDS011;4465;50.904;4.696;2023-10-19T00:41:18;2.35;;;0.82;;
8857;SDS011;4465;50.904;4.696;2023-10-19T00:43:49;2.05;;;0.60;;
8857;SDS011;4465;50.904;4.696;2023-10-19T00:46:22;2.92;;;0.77;;
8857;SDS011;4465;50.904;4.696;2023-10-19T00:48:57;5.03;;;0.80;;
8857;SDS011;4465;50.904;4.696;2023-10-19T00:51:29;4.13;;;0.75;;
8857;SDS011;4465;50.904;4.696;2023-10-19T00:54:17;1.55;;;0.55;;
8857;SDS011;4465;50.904;4.696;2023-10-19T00:57:01;5.65;;;1.00;;
8857;SDS011;4465;50.904;4.696;2023-10-19T00:59:38;6.40;;;0.93;;
8857;SDS011;4465;50.904;4.696;2023-10-19T01:02:28;3.10;;;0.73;;
8857;SDS011;4465;50.904;4.696;2023-10-19T01:04:55;2.15;;;0.65;;
8857;SDS011;4465;50.904;4.696;2023-10-19T01:07:28;1.48;;;0.75;;
8857;SDS011;4465;50.904;4.696;2023-10-19T01:09:58;4.10;;;0.73;;
8857;SDS011;4465;50.904;4.696;2023-10-19T01:12:31;2.50;;;1.00;;
8857;SDS011;4465;50.904;4.696;2023-10-19T01:15:08;4.10;;;0.90;;
8857;SDS011;4465;50.904;4.696;2023-10-19T01:17:42;5.00;;;1.08;;
8857;SDS011;4465;50.904;4.696;2023-10-19T01:20:17;3.53;;;0.88;;
8857;SDS011;4465;50.904;4.696;2023-10-19T01:22:56;3.55;;;0.80;;
8857;SDS011;4465;50.904;4.696;2023-10-19T01:25:53;2.33;;;0.70;;
8857;SDS011;4465;50.904;4.696;2023-10-19T01:28:19;3.25;;;0.80;;
8857;SDS011;4465;50.904;4.696;2023-10-19T01:30:50;0.98;;;0.50;;
8857;SDS011;4465;50.904;4.696;2023-10-19T01:33:19;3.88;;;0.73;;
8857;SDS011;4465;50.904;4.696;2023-10-19T01:35:45;1.10;;;0.68;;
8857;SDS011;4465;50.904;4.696;2023-10-19T01:38:30;2.53;;;0.65;;
8857;SDS011;4465;50.904;4.696;2023-10-19T01:41:05;2.05;;;0.80;;
8857;SDS011;4465;50.904;4.696;2023-10-19T01:43:39;2.13;;;0.63;;
8857;SDS011;4465;50.904;4.696;2023-10-19T01:46:06;1.63;;;0.65;;
8857;SDS011;4465;50.904;4.696;2023-10-19T01:48:53;2.25;;;0.70;;
8857;SDS011;4465;50.904;4.696;2023-10-19T01:51:23;4.82;;;0.90;;
8857;SDS011;4465;50.904;4.696;2023-10-19T01:53:51;4.32;;;1.00;;
8857;SDS011;4465;50.904;4.696;2023-10-19T01:56:20;2.78;;;0.80;;
8857;SDS011;4465;50.904;4.696;2023-10-19T01:58:47;2.78;;;0.82;;
8857;SDS011;4465;50.904;4.696;2023-10-19T02:01:14;3.20;;;1.00;;
8857;SDS011;4465;50.904;4.696;2023-10-19T02:03:53;2.67;;;0.68;;
8857;SDS011;4465;50.904;4.696;2023-10-19T02:06:23;2.05;;;0.70;;
8857;SDS011;4465;50.904;4.696;2023-10-19T02:08:59;1.70;;;0.73;;
8857;SDS011;4465;50.904;4.696;2023-10-19T02:11:55;6.47;;;1.05;;
8857;SDS011;4465;50.904;4.696;2023-10-19T02:14:22;4.93;;;1.13;;
8857;SDS011;4465;50.904;4.696;2023-10-19T02:16:52;7.18;;;1.17;;
8857;SDS011;4465;50.904;4.696;2023-10-19T02:19:22;5.78;;;0.90;;
8857;SDS011;4465;50.904;4.696;2023-10-19T02:21:53;4.15;;;1.02;;
8857;SDS011;4465;50.904;4.696;2023-10-19T02:24:28;4.00;;;1.00;;
8857;SDS011;4465;50.904;4.696;2023-10-19T02:26:55;5.20;;;0.85;;
8857;SDS011;4465;50.904;4.696;2023-10-19T02:29:22;4.82;;;0.60;;
8857;SDS011;4465;50.904;4.696;2023-10-19T02:31:51;3.75;;;0.80;;
8857;SDS011;4465;50.904;4.696;2023-10-19T02:34:18;3.65;;;0.75;;
8857;SDS011;4465;50.904;4.696;2023-10-19T02:36:45;8.40;;;0.95;;
8857;SDS011;4465;50.904;4.696;2023-10-19T02:39:13;6.70;;;0.98;;
8857;SDS011;4465;50.904;4.696;2023-10-19T02:41:44;6.10;;;1.00;;
8857;SDS011;4465;50.904;4.696;2023-10-19T02:44:19;3.25;;;1.25;;
8857;SDS011;4465;50.904;4.696;2023-10-19T02:46:49;7.15;;;1.13;;
8857;SDS011;4465;50.904;4.696;2023-10-19T02:49:17;5.65;;;1.10;;
8857;SDS011;4465;50.904;4.696;2023-10-19T02:51:50;6.32;;;1.52;;
8857;SDS011;4465;50.904;4.696;2023-10-19T02:54:21;4.57;;;1.33;;
8857;SDS011;4465;50.904;4.696;2023-10-19T02:56:55;6.28;;;1.08;;
8857;SDS011;4465;50.904;4.696;2023-10-19T02:59:27;6.13;;;1.10;;
8857;SDS011;4465;50.904;4.696;2023-10-19T03:02:00;6.88;;;1.00;;
8857;SDS011;4465;50.904;4.696;2023-10-19T03:04:42;4.75;;;1.20;;
8857;SDS011;4465;50.904;4.696;2023-10-19T03:07:11;4.67;;;1.00;;
8857;SDS011;4465;50.904;4.696;2023-10-19T03:09:38;5.38;;;1.15;;
8857;SDS011;4465;50.904;4.696;2023-10-19T03:12:21;6.95;;;1.23;;
8857;SDS011;4465;50.904;4.696;2023-10-19T03:14:51;8.20;;;1.30;;
8857;SDS011;4465;50.904;4.696;2023-10-19T03:17:17;9.10;;;1.85;;
8857;SDS011;4465;50.904;4.696;2023-10-19T03:19:43;5.00;;;0.93;;
8857;SDS011;4465;50.904;4.696;2023-10-19T03:22:13;9.73;;;1.52;;
8857;SDS011;4465;50.904;4.696;2023-10-19T03:24:42;3.33;;;1.17;;
8857;SDS011;4465;50.904;4.696;2023-10-19T03:27:17;6.40;;;1.38;;
8857;SDS011;4465;50.904;4.696;2023-10-19T03:29:43;2.15;;;0.93;;
8857;SDS011;4465;50.904;4.696;2023-10-19T03:32:19;5.22;;;1.15;;
8857;SDS011;4465;50.904;4.696;2023-10-19T03:34:47;11.43;;;1.30;;
8857;SDS011;4465;50.904;4.696;2023-10-19T03:37:20;8.38;;;1.48;;
8857;SDS011;4465;50.904;4.696;2023-10-19T03:39:51;6.75;;;1.63;;
8857;SDS011;4465;50.904;4.696;2023-10-19T03:42:17;6.95;;;1.42;;
8857;SDS011;4465;50.904;4.696;2023-10-19T03:44:45;8.02;;;1.42;;
8857;SDS011;4465;50.904;4.696;2023-10-19T03:47:14;6.20;;;1.27;;
8857;SDS011;4465;50.904;4.696;2023-10-19T03:49:44;7.15;;;1.17;;
8857;SDS011;4465;50.904;4.696;2023-10-19T03:52:12;16.98;;;1.50;;
8857;SDS011;4465;50.904;4.696;2023-10-19T03:54:40;10.05;;;1.90;;
8857;SDS011;4465;50.904;4.696;2023-10-19T03:57:07;10.15;;;1.60;;
8857;SDS011;4465;50.904;4.696;2023-10-19T03:59:40;7.43;;;1.30;;
8857;SDS011;4465;50.904;4.696;2023-10-19T04:02:10;8.88;;;1.35;;
8857;SDS011;4465;50.904;4.696;2023-10-19T04:04:42;7.35;;;1.42;;
8857;SDS011;4465;50.904;4.696;2023-10-19T04:07:14;7.65;;;1.10;;
8857;SDS011;4465;50.904;4.696;2023-10-19T04:09:49;7.40;;;1.55;;
8857;SDS011;4465;50.904;4.696;2023-10-19T04:12:28;3.35;;;1.10;;
8857;SDS011;4465;50.904;4.696;2023-10-19T04:14:57;5.85;;;1.42;;
8857;SDS011;4465;50.904;4.696;2023-10-19T04:17:26;12.00;;;1.67;;
8857;SDS011;4465;50.904;4.696;2023-10-19T04:19:53;7.65;;;1.48;;
8857;SDS011;4465;50.904;4.696;2023-10-19T04:22:20;8.90;;;1.60;;
8857;SDS011;4465;50.904;4.696;2023-10-19T04:24:51;6.32;;;1.35;;
8857;SDS011;4465;50.904;4.696;2023-10-19T04:27:17;7.22;;;1.70;;
8857;SDS011;4465;50.904;4.696;2023-10-19T04:29:51;9.32;;;1.85;;
8857;SDS011;4465;50.904;4.696;2023-10-19T04:32:17;4.80;;;1.40;;
8857;SDS011;4465;50.904;4.696;2023-10-19T04:34:51;10.55;;;1.85;;
8857;SDS011;4465;50.904;4.696;2023-10-19T04:37:18;5.65;;;1.40;;
8857;SDS011;4465;50.904;4.696;2023-10-19T04:39:44;6.20;;;1.77;;
8857;SDS011;4465;50.904;4.696;2023-10-19T04:42:10;7.88;;;1.80;;
8857;SDS011;4465;50.904;4.696;2023-10-19T04:44:39;7.38;;;1.40;;
8857;SDS011;4465;50.904;4.696;2023-10-19T04:47:05;6.97;;;1.67;;
8857;SDS011;4465;50.904;4.696;2023-10-19T04:49:34;7.72;;;1.80;;
8857;SDS011;4465;50.904;4.696;2023-10-19T04:51:59;12.00;;;1.70;;
8857;SDS011;4465;50.904;4.696;2023-10-19T04:54:25;6.55;;;1.30;;
8857;SDS011;4465;50.904;4.696;2023-10-19T04:56:52;7.35;;;1.73;;
8857;SDS011;4465;50.904;4.696;2023-10-19T04:59:20;6.85;;;1.52;;
8857;SDS011;4465;50.904;4.696;2023-10-19T05:01:46;4.70;;;1.55;;
8857;SDS011;4465;50.904;4.696;2023-10-19T05:04:12;8.98;;;1.40;;
8857;SDS011;4465;50.904;4.696;2023-10-19T05:06:38;8.63;;;1.73;;
8857;SDS011;4465;50.904;4.696;2023-10-19T05:09:04;6.97;;;1.50;;
8857;SDS011;4465;50.904;4.696;2023-10-19T05:11:31;9.90;;;1.42;;
8857;SDS011;4465;50.904;4.696;2023-10-19T05:13:57;3.65;;;1.20;;
8857;SDS011;4465;50.904;4.696;2023-10-19T05:16:25;10.60;;;1.80;;
8857;SDS011;4465;50.904;4.696;2023-10-19T05:18:51;6.03;;;1.48;;
8857;SDS011;4465;50.904;4.696;2023-10-19T05:21:17;7.30;;;1.90;;
8857;SDS011;4465;50.904;4.696;2023-10-19T05:23:49;7.55;;;1.58;;
8857;SDS011;4465;50.904;4.696;2023-10-19T05:26:16;6.32;;;1.48;;
8857;SDS011;4465;50.904;4.696;2023-10-19T05:28:41;7.85;;;1.60;;
8857;SDS011;4465;50.904;4.696;2023-10-19T05:31:08;8.20;;;1.50;;
8857;SDS011;4465;50.904;4.696;2023-10-19T05:33:36;10.05;;;1.73;;
8857;SDS011;4465;50.904;4.696;2023-10-19T05:36:06;7.55;;;1.85;;
8857;SDS011;4465;50.904;4.696;2023-10-19T05:38:32;10.50;;;2.03;;
8857;SDS011;4465;50.904;4.696;2023-10-19T05:41:00;9.90;;;1.70;;
8857;SDS011;4465;50.904;4.696;2023-10-19T05:43:33;5.82;;;1.70;;
8857;SDS011;4465;50.904;4.696;2023-10-19T05:46:00;4.60;;;1.70;;
8857;SDS011;4465;50.904;4.696;2023-10-19T05:48:28;7.60;;;1.70;;
8857;SDS011;4465;50.904;4.696;2023-10-19T05:50:56;6.70;;;1.70;;
8857;SDS011;4465;50.904;4.696;2023-10-19T05:53:22;4.30;;;1.92;;
8857;SDS011;4465;50.904;4.696;2023-10-19T05:55:51;8.75;;;1.70;;
8857;SDS011;4465;50.904;4.696;2023-10-19T05:58:17;12.35;;;2.50;;
8857;SDS011;4465;50.904;4.696;2023-10-19T06:00:43;8.13;;;2.03;;
8857;SDS011;4465;50.904;4.696;2023-10-19T06:03:12;8.35;;;1.90;;
8857;SDS011;4465;50.904;4.696;2023-10-19T06:05:37;7.57;;;2.25;;
8857;SDS011;4465;50.904;4.696;2023-10-19T06:08:03;8.77;;;1.85;;
8857;SDS011;4465;50.904;4.696;2023-10-19T06:10:30;8.07;;;2.20;;
8857;SDS011;4465;50.904;4.696;2023-10-19T06:12:59;7.57;;;2.40;;
8857;SDS011;4465;50.904;4.696;2023-10-19T06:15:29;7.35;;;2.20;;
8857;SDS011;4465;50.904;4.696;2023-10-19T06:17:56;10.10;;;2.00;;
8857;SDS011;4465;50.904;4.696;2023-10-19T06:20:22;6.35;;;1.92;;
8857;SDS011;4465;50.904;4.696;2023-10-19T06:22:54;13.77;;;2.15;;
8857;SDS011;4465;50.904;4.696;2023-10-19T06:25:30;11.20;;;2.00;;
8857;SDS011;4465;50.904;4.696;2023-10-19T06:27:56;10.88;;;2.10;;
8857;SDS011;4465;50.904;4.696;2023-10-19T06:30:23;8.73;;;1.77;;
8857;SDS011;4465;50.904;4.696;2023-10-19T06:32:52;10.43;;;2.40;;
8857;SDS011;4465;50.904;4.696;2023-10-19T06:35:22;11.43;;;2.00;;
8857;SDS011;4465;50.904;4.696;2023-10-19T06:37:52;10.77;;;2.13;;
8857;SDS011;4465;50.904;4.696;2023-10-19T06:40:20;9.57;;;2.35;;
8857;SDS011;4465;50.904;4.696;2023-10-19T06:42:47;13.85;;;2.38;;
8857;SDS011;4465;50.904;4.696;2023-10-19T06:45:15;7.45;;;2.25;;
8857;SDS011;4465;50.904;4.696;2023-10-19T06:47:44;13.90;;;1.95;;
8857;SDS011;4465;50.904;4.696;2023-10-19T06:50:21;12.75;;;2.03;;
8857;SDS011;4465;50.904;4.696;2023-10-19T06:52:48;3.88;;;1.80;;
8857;SDS011;4465;50.904;4.696;2023-10-19T06:55:15;15.13;;;2.50;;
8857;SDS011;4465;50.904;4.696;2023-10-19T06:57:47;17.33;;;2.25;;
8857;SDS011;4465;50.904;4.696;2023-10-19T07:00:21;13.52;;;2.35;;
8857;SDS011;4465;50.904;4.696;2023-10-19T07:02:52;14.63;;;2.00;;
8857;SDS011;4465;50.904;4.696;2023-10-19T07:05:20;12.30;;;1.95;;
8857;SDS011;4465;50.904;4.696;2023-10-19T07:07:51;13.52;;;3.00;;
8857;SDS011;4465;50.904;4.696;2023-10-19T07:10:19;11.38;;;2.25;;
8857;SDS011;4465;50.904;4.696;2023-10-19T07:12:46;9.70;;;2.25;;
8857;SDS011;4465;50.904;4.696;2023-10-19T07:15:13;17.40;;;2.00;;
8857;SDS011;4465;50.904;4.696;2023-10-19T07:17:40;5.85;;;1.50;;
8857;SDS011;4465;50.904;4.696;2023-10-19T07:20:07;8.60;;;2.25;;
8857;SDS011;4465;50.904;4.696;2023-10-19T07:22:35;10.85;;;2.20;;
8857;SDS011;4465;50.904;4.696;2023-10-19T07:25:06;11.65;;;2.03;;
8857;SDS011;4465;50.904;4.696;2023-10-19T07:27:34;13.07;;;2.38;;
8857;SDS011;4465;50.904;4.696;2023-10-19T07:30:01;5.95;;;1.77;;
8857;SDS011;4465;50.904;4.696;2023-10-19T07:32:32;11.10;;;2.05;;
8857;SDS011;4465;50.904;4.696;2023-10-19T07:35:01;10.35;;;1.85;;
8857;SDS011;4465;50.904;4.696;2023-10-19T07:37:29;12.55;;;2.40;;
8857;SDS011;4465;50.904;4.696;2023-10-19T07:39:55;12.30;;;2.20;;
8857;SDS011;4465;50.904;4.696;2023-10-19T07:42:23;14.73;;;2.80;;
8857;SDS011;4465;50.904;4.696;2023-10-19T07:44:51;6.95;;;2.08;;
8857;SDS011;4465;50.904;4.696;2023-10-19T07:47:19;8.15;;;2.03;;
8857;SDS011;4465;50.904;4.696;2023-10-19T07:49:47;9.45;;;2.05;;
8857;SDS011;4465;50.904;4.696;2023-10-19T07:52:16;11.48;;;1.83;;
8857;SDS011;4465;50.904;4.696;2023-10-19T07:54:42;8.70;;;1.85;;
8857;SDS011;4465;50.904;4.696;2023-10-19T07:57:11;9.20;;;2.13;;
8857;SDS011;4465;50.904;4.696;2023-10-19T07:59:40;8.65;;;2.28;;
8857;SDS011;4465;50.904;4.696;2023-10-19T08:02:10;12.60;;;2.60;;
8857;SDS011;4465;50.904;4.696;2023-10-19T08:04:38;10.40;;;2.13;;
8857;SDS011;4465;50.904;4.696;2023-10-19T08:07:04;12.88;;;2.50;;
8857;SDS011;4465;50.904;4.696;2023-10-19T08:09:32;6.95;;;2.00;;
8857;SDS011;4465;50.904;4.696;2023-10-19T08:12:02;8.75;;;2.10;;
8857;SDS011;4465;50.904;4.696;2023-10-19T08:14:33;7.57;;;2.53;;
8857;SDS011;4465;50.904;4.696;2023-10-19T08:16:58;7.50;;;1.63;;
8857;SDS011;4465;50.904;4.696;2023-10-19T08:19:24;15.73;;;2.00;;
8857;SDS011;4465;50.904;4.696;2023-10-19T08:21:55;9.20;;;2.30;;
8857;SDS011;4465;50.904;4.696;2023-10-19T08:24:21;9.37;;;2.47;;
8857;SDS011;4465;50.904;4.696;2023-10-19T08:26:48;7.90;;;2.27;;
8857;SDS011;4465;50.904;4.696;2023-10-19T08:29:16;17.17;;;2.58;;
8857;SDS011;4465;50.904;4.696;2023-10-19T08:31:44;15.18;;;2.50;;
8857;SDS011;4465;50.904;4.696;2023-10-19T08:34:13;10.48;;;2.00;;
8857;SDS011;4465;50.904;4.696;2023-10-19T08:36:41;14.10;;;1.98;;
8857;SDS011;4465;50.904;4.696;2023-10-19T08:39:08;13.00;;;2.13;;
8857;SDS011;4465;50.904;4.696;2023-10-19T08:41:37;11.48;;;2.15;;
8857;SDS011;4465;50.904;4.696;2023-10-19T08:44:08;9.15;;;2.10;;
8857;SDS011;4465;50.904;4.696;2023-10-19T08:46:41;7.20;;;2.13;;
8857;SDS011;4465;50.904;4.696;2023-10-19T08:49:15;13.57;;;2.53;;
8857;SDS011;4465;50.904;4.696;2023-10-19T08:51:45;18.17;;;2.75;;
8857;SDS011;4465;50.904;4.696;2023-10-19T08:54:14;6.47;;;2.05;;
8857;SDS011;4465;50.904;4.696;2023-10-19T08:56:42;14.27;;;2.65;;
8857;SDS011;4465;50.904;4.696;2023-10-19T08:59:12;6.05;;;2.00;;
8857;SDS011;4465;50.904;4.696;2023-10-19T09:01:41;10.13;;;1.80;;
8857;SDS011;4465;50.904;4.696;2023-10-19T09:04:10;14.32;;;1.90;;
8857;SDS011;4465;50.904;4.696;2023-10-19T09:06:38;6.15;;;2.00;;
8857;SDS011;4465;50.904;4.696;2023-10-19T09:09:10;12.02;;;1.88;;
8857;SDS011;4465;50.904;4.696;2023-10-19T09:11:47;7.20;;;2.00;;
8857;SDS011;4465;50.904;4.696;2023-10-19T09:14:31;13.98;;;3.00;;
8857;SDS011;4465;50.904;4.696;2023-10-19T09:16:59;11.13;;;2.20;;
8857;SDS011;4465;50.904;4.696;2023-10-19T09:19:35;15.82;;;2.90;;
8857;SDS011;4465;50.904;4.696;2023-10-19T09:22:05;9.00;;;2.20;;
8857;SDS011;4465;50.904;4.696;2023-10-19T09:24:42;7.22;;;2.35;;
8857;SDS011;4465;50.904;4.696;2023-10-19T09:27:08;12.60;;;2.20;;
8857;SDS011;4465;50.904;4.696;2023-10-19T09:29:34;10.75;;;2.05;;
8857;SDS011;4465;50.904;4.696;2023-10-19T09:32:01;9.70;;;2.13;;
8857;SDS011;4465;50.904;4.696;2023-10-19T09:34:30;7.28;;;1.90;;
8857;SDS011;4465;50.904;4.696;2023-10-19T09:36:59;12.10;;;2.30;;
8857;SDS011;4465;50.904;4.696;2023-10-19T09:39:29;9.43;;;2.47;;
8857;SDS011;4465;50.904;4.696;2023-10-19T09:42:02;11.48;;;2.13;;
8857;SDS011;4465;50.904;4.696;2023-10-19T09:44:45;14.95;;;2.20;;
8857;SDS011;4465;50.904;4.696;2023-10-19T09:47:26;7.68;;;2.22;;
8857;SDS011;4465;50.904;4.696;2023-10-19T09:50:02;12.07;;;2.28;;
8857;SDS011;4465;50.904;4.696;2023-10-19T09:52:31;6.95;;;1.90;;
8857;SDS011;4465;50.904;4.696;2023-10-19T09:55:06;12.23;;;1.77;;
8857;SDS011;4465;50.904;4.696;2023-10-19T10:00:37;13.60;;;2.50;;
8857;SDS011;4465;50.904;4.696;2023-10-19T10:03:03;7.87;;;2.07;;
8857;SDS011;4465;50.904;4.696;2023-10-19T10:10:47;11.25;;;1.92;;
8857;SDS011;4465;50.904;4.696;2023-10-19T10:18:33;12.98;;;2.33;;
8857;SDS011;4465;50.904;4.696;2023-10-19T10:21:13;9.50;;;1.77;;
8857;SDS011;4465;50.904;4.696;2023-10-19T10:23:42;10.73;;;2.20;;
8857;SDS011;4465;50.904;4.696;2023-10-19T10:26:13;8.40;;;1.75;;
8857;SDS011;4465;50.904;4.696;2023-10-19T10:28:40;7.18;;;1.70;;
8857;SDS011;4465;50.904;4.696;2023-10-19T10:31:14;14.32;;;2.53;;
8857;SDS011;4465;50.904;4.696;2023-10-19T10:33:48;10.32;;;2.10;;
8857;SDS011;4465;50.904;4.696;2023-10-19T10:36:20;12.05;;;2.60;;
8857;SDS011;4465;50.904;4.696;2023-10-19T10:38:47;5.97;;;1.85;;
8857;SDS011;4465;50.904;4.696;2023-10-19T10:41:23;6.70;;;1.58;;
8857;SDS011;4465;50.904;4.696;2023-10-19T10:43:57;9.65;;;1.98;;
8857;SDS011;4465;50.904;4.696;2023-10-19T10:46:27;6.05;;;1.77;;
8857;SDS011;4465;50.904;4.696;2023-10-19T10:48:55;9.82;;;2.20;;
8857;SDS011;4465;50.904;4.696;2023-10-19T10:51:22;10.73;;;2.50;;
8857;SDS011;4465;50.904;4.696;2023-10-19T10:53:50;10.38;;;2.33;;
8857;SDS011;4465;50.904;4.696;2023-10-19T10:58:43;14.52;;;2.30;;
8857;SDS011;4465;50.904;4.696;2023-10-19T11:01:10;9.90;;;2.50;;
8857;SDS011;4465;50.904;4.696;2023-10-19T11:03:36;12.13;;;2.22;;
8857;SDS011;4465;50.904;4.696;2023-10-19T11:06:06;7.50;;;1.88;;
8857;SDS011;4465;50.904;4.696;2023-10-19T11:08:37;13.18;;;2.45;;
8857;SDS011;4465;50.904;4.696;2023-10-19T11:11:05;8.73;;;2.03;;
8857;SDS011;4465;50.904;4.696;2023-10-19T11:13:37;13.05;;;2.38;;
8857;SDS011;4465;50.904;4.696;2023-10-19T11:16:04;9.45;;;1.98;;
8857;SDS011;4465;50.904;4.696;2023-10-19T11:18:38;8.77;;;2.35;;
8857;SDS011;4465;50.904;4.696;2023-10-19T11:21:09;10.85;;;2.28;;
8857;SDS011;4465;50.904;4.696;2023-10-19T11:23:49;9.00;;;2.10;;
8857;SDS011;4465;50.904;4.696;2023-10-19T11:26:19;9.68;;;1.95;;
8857;SDS011;4465;50.904;4.696;2023-10-19T11:28:47;15.95;;;2.30;;
8857;SDS011;4465;50.904;4.696;2023-10-19T11:31:24;11.18;;;2.00;;
8857;SDS011;4465;50.904;4.696;2023-10-19T11:33:55;6.78;;;1.98;;
8857;SDS011;4465;50.904;4.696;2023-10-19T11:36:22;13.07;;;2.50;;
8857;SDS011;4465;50.904;4.696;2023-10-19T11:38:49;6.78;;;2.10;;
8857;SDS011;4465;50.904;4.696;2023-10-19T11:41:19;8.93;;;2.20;;
8857;SDS011;4465;50.904;4.696;2023-10-19T11:43:46;11.35;;;2.10;;
8857;SDS011;4465;50.904;4.696;2023-10-19T11:48:50;6.70;;;1.83;;
8857;SDS011;4465;50.904;4.696;2023-10-19T11:51:16;12.45;;;2.03;;
8857;SDS011;4465;50.904;4.696;2023-10-19T11:53:42;9.95;;;2.20;;
8857;SDS011;4465;50.904;4.696;2023-10-19T11:56:09;8.02;;;1.90;;
8857;SDS011;4465;50.904;4.696;2023-10-19T11:58:38;8.75;;;2.10;;
8857;SDS011;4465;50.904;4.696;2023-10-19T12:01:05;11.20;;;2.13;;
8857;SDS011;4465;50.904;4.696;2023-10-19T12:03:37;8.50;;;1.95;;
8857;SDS011;4465;50.904;4.696;2023-10-19T12:06:08;11.43;;;2.10;;
8857;SDS011;4465;50.904;4.696;2023-10-19T12:08:36;3.83;;;1.55;;
8857;SDS011;4465;50.904;4.696;2023-10-19T12:11:05;11.27;;;2.40;;
8857;SDS011;4465;50.904;4.696;2023-10-19T12:13:42;6.30;;;2.28;;
8857;SDS011;4465;50.904;4.696;2023-10-19T12:16:12;8.30;;;2.60;;
8857;SDS011;4465;50.904;4.696;2023-10-19T12:18:41;8.48;;;2.03;;
8857;SDS011;4465;50.904;4.696;2023-10-19T12:21:08;7.75;;;1.90;;
8857;SDS011;4465;50.904;4.696;2023-10-19T12:23:43;8.25;;;1.83;;
8857;SDS011;4465;50.904;4.696;2023-10-19T12:26:10;10.25;;;1.88;;
8857;SDS011;4465;50.904;4.696;2023-10-19T12:28:39;3.20;;;1.65;;
8857;SDS011;4465;50.904;4.696;2023-10-19T12:31:11;10.45;;;2.08;;
8857;SDS011;4465;50.904;4.696;2023-10-19T12:33:38;7.10;;;2.08;;
8857;SDS011;4465;50.904;4.696;2023-10-19T12:36:05;7.13;;;1.58;;
8857;SDS011;4465;50.904;4.696;2023-10-19T12:38:50;7.78;;;1.85;;
8857;SDS011;4465;50.904;4.696;2023-10-19T12:41:16;7.10;;;2.33;;
8857;SDS011;4465;50.904;4.696;2023-10-19T12:43:43;7.82;;;2.28;;
8857;SDS011;4465;50.904;4.696;2023-10-19T12:46:10;7.75;;;2.20;;
8857;SDS011;4465;50.904;4.696;2023-10-19T12:48:38;8.98;;;2.33;;
8857;SDS011;4465;50.904;4.696;2023-10-19T12:51:06;7.68;;;2.20;;
8857;SDS011;4465;50.904;4.696;2023-10-19T12:53:37;9.25;;;2.33;;
8857;SDS011;4465;50.904;4.696;2023-10-19T12:56:04;9.75;;;2.00;;
8857;SDS011;4465;50.904;4.696;2023-10-19T12:58:35;8.55;;;2.15;;
8857;SDS011;4465;50.904;4.696;2023-10-19T13:01:02;5.07;;;1.60;;
8857;SDS011;4465;50.904;4.696;2023-10-19T13:03:33;5.38;;;1.73;;
8857;SDS011;4465;50.904;4.696;2023-10-19T13:06:01;5.72;;;1.73;;
8857;SDS011;4465;50.904;4.696;2023-10-19T13:08:30;6.78;;;1.60;;
8857;SDS011;4465;50.904;4.696;2023-10-19T13:10:56;5.75;;;1.60;;
8857;SDS011;4465;50.904;4.696;2023-10-19T13:13:22;7.55;;;1.90;;
8857;SDS011;4465;50.904;4.696;2023-10-19T13:15:50;7.68;;;1.77;;
8857;SDS011;4465;50.904;4.696;2023-10-19T13:18:15;4.50;;;1.60;;
8857;SDS011;4465;50.904;4.696;2023-10-19T13:20:53;6.78;;;1.92;;
8857;SDS011;4465;50.904;4.696;2023-10-19T13:23:22;4.20;;;1.50;;
8857;SDS011;4465;50.904;4.696;2023-10-19T13:25:50;6.55;;;1.58;;
8857;SDS011;4465;50.904;4.696;2023-10-19T13:28:22;4.72;;;1.30;;
8857;SDS011;4465;50.904;4.696;2023-10-19T13:30:50;3.08;;;1.30;;
8857;SDS011;4465;50.904;4.696;2023-10-19T13:33:18;4.45;;;1.40;;
8857;SDS011;4465;50.904;4.696;2023-10-19T13:35:49;1.65;;;0.90;;
8857;SDS011;4465;50.904;4.696;2023-10-19T13:38:15;2.60;;;1.13;;
8857;SDS011;4465;50.904;4.696;2023-10-19T13:40:45;2.92;;;1.38;;
8857;SDS011;4465;50.904;4.696;2023-10-19T13:43:11;3.15;;;1.10;;
8857;SDS011;4465;50.904;4.696;2023-10-19T13:45:43;2.50;;;1.10;;
8857;SDS011;4465;50.904;4.696;2023-10-19T13:48:10;5.80;;;1.33;;
8857;SDS011;4465;50.904;4.696;2023-10-19T13:53:13;2.33;;;1.15;;
8857;SDS011;4465;50.904;4.696;2023-10-19T13:55:43;2.47;;;1.00;;
8857;SDS011;4465;50.904;4.696;2023-10-19T13:58:14;2.28;;;0.90;;
8857;SDS011;4465;50.904;4.696;2023-10-19T14:00:41;2.42;;;1.45;;
8857;SDS011;4465;50.904;4.696;2023-10-19T14:03:09;2.22;;;1.10;;
8857;SDS011;4465;50.904;4.696;2023-10-19T14:05:39;1.98;;;1.40;;
8857;SDS011;4465;50.904;4.696;2023-10-19T14:08:08;2.92;;;1.10;;
8857;SDS011;4465;50.904;4.696;2023-10-19T14:10:34;5.35;;;1.13;;
8857;SDS011;4465;50.904;4.696;2023-10-19T14:13:01;3.72;;;0.93;;
8857;SDS011;4465;50.904;4.696;2023-10-19T14:15:27;3.60;;;1.10;;
8857;SDS011;4465;50.904;4.696;2023-10-19T14:17:54;4.80;;;0.88;;
8857;SDS011;4465;50.904;4.696;2023-10-19T14:20:21;2.72;;;0.90;;
8857;SDS011;4465;50.904;4.696;2023-10-19T14:22:49;2.08;;;1.08;;
8857;SDS011;4465;50.904;4.696;2023-10-19T14:25:18;3.35;;;1.20;;
8857;SDS011;4465;50.904;4.696;2023-10-19T14:27:48;3.08;;;1.17;;
8857;SDS011;4465;50.904;4.696;2023-10-19T14:30:15;4.90;;;1.27;;
8857;SDS011;4465;50.904;4.696;2023-10-19T14:32:45;1.52;;;0.93;;
8857;SDS011;4465;50.904;4.696;2023-10-19T14:35:15;2.30;;;0.90;;
8857;SDS011;4465;50.904;4.696;2023-10-19T14:37:51;3.55;;;0.90;;
8857;SDS011;4465;50.904;4.696;2023-10-19T14:40:27;5.18;;;1.33;;
8857;SDS011;4465;50.904;4.696;2023-10-19T14:42:53;3.47;;;1.00;;
8857;SDS011;4465;50.904;4.696;2023-10-19T14:45:25;2.58;;;0.95;;
8857;SDS011;4465;50.904;4.696;2023-10-19T14:47:55;1.83;;;1.08;;
8857;SDS011;4465;50.904;4.696;2023-10-19T14:50:29;2.05;;;1.10;;
8857;SDS011;4465;50.904;4.696;2023-10-19T14:52:55;3.10;;;1.08;;
8857;SDS011;4465;50.904;4.696;2023-10-19T14:55:21;2.38;;;0.95;;
8857;SDS011;4465;50.904;4.696;2023-10-19T14:57:51;2.35;;;0.98;;
8857;SDS011;4465;50.904;4.696;2023-10-19T15:00:21;1.58;;;0.85;;
8857;SDS011;4465;50.904;4.696;2023-10-19T15:02:55;1.95;;;1.00;;
8857;SDS011;4465;50.904;4.696;2023-10-19T15:05:25;2.13;;;1.10;;
8857;SDS011;4465;50.904;4.696;2023-10-19T15:07:53;4.85;;;0.90;;
8857;SDS011;4465;50.904;4.696;2023-10-19T15:10:27;3.05;;;1.25;;
8857;SDS011;4465;50.904;4.696;2023-10-19T15:12:53;3.92;;;1.17;;
8857;SDS011;4465;50.904;4.696;2023-10-19T15:15:21;2.22;;;0.90;;
8857;SDS011;4465;50.904;4.696;2023-10-19T15:17:48;1.88;;;1.05;;
8857;SDS011;4465;50.904;4.696;2023-10-19T15:20:16;4.13;;;1.63;;
8857;SDS011;4465;50.904;4.696;2023-10-19T15:22:45;2.28;;;0.90;;
8857;SDS011;4465;50.904;4.696;2023-10-19T15:25:14;1.67;;;0.85;;
8857;SDS011;4465;50.904;4.696;2023-10-19T15:27:45;2.85;;;1.10;;
8857;SDS011;4465;50.904;4.696;2023-10-19T15:30:12;2.40;;;1.08;;
8857;SDS011;4465;50.904;4.696;2023-10-19T15:32:44;3.42;;;1.13;;
8857;SDS011;4465;50.904;4.696;2023-10-19T15:35:12;3.95;;;1.73;;
8857;SDS011;4465;50.904;4.696;2023-10-19T15:37:41;5.45;;;1.27;;
8857;SDS011;4465;50.904;4.696;2023-10-19T15:40:07;4.90;;;1.20;;
8857;SDS011;4465;50.904;4.696;2023-10-19T15:42:41;3.58;;;1.08;;
8857;SDS011;4465;50.904;4.696;2023-10-19T15:45:10;2.60;;;1.00;;
8857;SDS011;4465;50.904;4.696;2023-10-19T15:47:39;2.08;;;0.98;;
8857;SDS011;4465;50.904;4.696;2023-10-19T15:50:06;1.10;;;0.80;;